sensor_id;sensor_type;location;lat;lon;timestamp;P1;durP1;ratioP1;P2;durP2;ratioP2
30553;SDS011;17335;50.720;7.452;2024-01-30T00:01:29;17.55;;;9.02;;
30553;SDS011;17335;50.720;7.452;2024-01-30T00:03:55;21.73;;;9.73;;
30553;SDS011;17335;50.720;7.452;2024-01-30T00:06:22;16.45;;;8.50;;
30553;SDS011;17335;50.720;7.452;2024-01-30T00:08:49;19.90;;;8.85;;
30553;SDS011;17335;50.720;7.452;2024-01-30T00:11:16;15.77;;;7.85;;
30553;SDS011;17335;50.720;7.452;2024-01-30T00:13:42;22.33;;;8.02;;
30553;SDS011;17335;50.720;7.452;2024-01-30T00:16:19;19.08;;;8.93;;
30553;SDS011;17335;50.720;7.452;2024-01-30T00:18:46;16.75;;;8.07;;
30553;SDS011;17335;50.720;7.452;2024-01-30T00:21:13;19.67;;;8.48;;
30553;SDS011;17335;50.720;7.452;2024-01-30T00:23:39;17.77;;;8.93;;
30553;SDS011;17335;50.720;7.452;2024-01-30T00:26:07;19.55;;;9.77;;
30553;SDS011;17335;50.720;7.452;2024-01-30T00:28:33;15.98;;;8.23;;
30553;SDS011;17335;50.720;7.452;2024-01-30T00:31:00;21.88;;;8.73;;
30553;SDS011;17335;50.720;7.452;2024-01-30T00:33:26;19.58;;;7.82;;
30553;SDS011;17335;50.720;7.452;2024-01-30T00:35:53;19.30;;;8.75;;
30553;SDS011;17335;50.720;7.452;2024-01-30T00:38:20;21.27;;;9.63;;
30553;SDS011;17335;50.720;7.452;2024-01-30T00:40:46;15.80;;;7.70;;
30553;SDS011;17335;50.720;7.452;2024-01-30T00:43:13;17.15;;;8.57;;
30553;SDS011;17335;50.720;7.452;2024-01-30T00:45:39;18.80;;;8.30;;
30553;SDS011;17335;50.720;7.452;2024-01-30T00:48:06;17.20;;;7.72;;
30553;SDS011;17335;50.720;7.452;2024-01-30T00:50:32;17.50;;;7.70;;
30553;SDS011;17335;50.720;7.452;2024-01-30T00:52:59;14.43;;;7.97;;
30553;SDS011;17335;50.720;7.452;2024-01-30T00:55:25;17.02;;;8.07;;
30553;SDS011;17335;50.720;7.452;2024-01-30T00:57:52;15.48;;;7.70;;
30553;SDS011;17335;50.720;7.452;2024-01-30T01:00:18;18.73;;;8.10;;
30553;SDS011;17335;50.720;7.452;2024-01-30T01:02:47;16.15;;;8.25;;
30553;SDS011;17335;50.720;7.452;2024-01-30T01:05:13;18.33;;;8.55;;
30553;SDS011;17335;50.720;7.452;2024-01-30T01:07:40;22.05;;;8.35;;
30553;SDS011;17335;50.720;7.452;2024-01-30T01:10:08;15.40;;;8.27;;
30553;SDS011;17335;50.720;7.452;2024-01-30T01:12:37;14.73;;;7.65;;
30553;SDS011;17335;50.720;7.452;2024-01-30T01:15:04;18.15;;;8.30;;
30553;SDS011;17335;50.720;7.452;2024-01-30T01:17:31;15.68;;;7.85;;
30553;SDS011;17335;50.720;7.452;2024-01-30T01:19:57;15.90;;;7.82;;
30553;SDS011;17335;50.720;7.452;2024-01-30T01:22:25;20.48;;;7.72;;
30553;SDS011;17335;50.720;7.452;2024-01-30T01:24:51;23.20;;;8.65;;
30553;SDS011;17335;50.720;7.452;2024-01-30T01:27:18;23.02;;;8.40;;
30553;SDS011;17335;50.720;7.452;2024-01-30T01:29:44;15.00;;;7.55;;
30553;SDS011;17335;50.720;7.452;2024-01-30T01:32:11;12.00;;;6.88;;
30553;SDS011;17335;50.720;7.452;2024-01-30T01:34:38;15.82;;;7.75;;
30553;SDS011;17335;50.720;7.452;2024-01-30T01:37:05;18.60;;;7.25;;
30553;SDS011;17335;50.720;7.452;2024-01-30T01:39:31;17.15;;;7.72;;
30553;SDS011;17335;50.720;7.452;2024-01-30T01:41:58;18.80;;;7.80;;
30553;SDS011;17335;50.720;7.452;2024-01-30T01:44:26;21.95;;;8.10;;
30553;SDS011;17335;50.720;7.452;2024-01-30T01:46:53;17.38;;;7.50;;
30553;SDS011;17335;50.720;7.452;2024-01-30T01:49:22;14.57;;;7.95;;
30553;SDS011;17335;50.720;7.452;2024-01-30T01:51:50;15.95;;;7.15;;
30553;SDS011;17335;50.720;7.452;2024-01-30T01:54:19;15.07;;;7.40;;
30553;SDS011;17335;50.720;7.452;2024-01-30T01:56:46;23.30;;;8.30;;
30553;SDS011;17335;50.720;7.452;2024-01-30T01:59:14;17.00;;;7.60;;
30553;SDS011;17335;50.720;7.452;2024-01-30T02:01:40;16.73;;;7.47;;
30553;SDS011;17335;50.720;7.452;2024-01-30T02:04:08;19.77;;;7.70;;
30553;SDS011;17335;50.720;7.452;2024-01-30T02:06:34;20.40;;;8.52;;
30553;SDS011;17335;50.720;7.452;2024-01-30T02:09:01;16.15;;;7.32;;
30553;SDS011;17335;50.720;7.452;2024-01-30T02:11:27;21.00;;;7.72;;
30553;SDS011;17335;50.720;7.452;2024-01-30T02:13:54;15.98;;;7.47;;
30553;SDS011;17335;50.720;7.452;2024-01-30T02:16:20;19.38;;;7.35;;
30553;SDS011;17335;50.720;7.452;2024-01-30T02:18:47;17.48;;;7.57;;
30553;SDS011;17335;50.720;7.452;2024-01-30T02:21:15;14.50;;;7.03;;
30553;SDS011;17335;50.720;7.452;2024-01-30T02:23:43;16.02;;;6.82;;
30553;SDS011;17335;50.720;7.452;2024-01-30T02:26:10;15.30;;;7.70;;
30553;SDS011;17335;50.720;7.452;2024-01-30T02:28:38;18.35;;;7.70;;
30553;SDS011;17335;50.720;7.452;2024-01-30T02:31:05;13.45;;;6.90;;
30553;SDS011;17335;50.720;7.452;2024-01-30T02:33:31;15.23;;;7.63;;
30553;SDS011;17335;50.720;7.452;2024-01-30T02:35:58;15.13;;;6.90;;
30553;SDS011;17335;50.720;7.452;2024-01-30T02:38:24;18.98;;;8.10;;
30553;SDS011;17335;50.720;7.452;2024-01-30T02:40:53;20.20;;;8.07;;
30553;SDS011;17335;50.720;7.452;2024-01-30T02:43:19;17.17;;;7.47;;
30553;SDS011;17335;50.720;7.452;2024-01-30T02:45:46;14.05;;;7.03;;
30553;SDS011;17335;50.720;7.452;2024-01-30T02:48:12;15.45;;;7.22;;
30553;SDS011;17335;50.720;7.452;2024-01-30T02:50:39;16.73;;;7.95;;
30553;SDS011;17335;50.720;7.452;2024-01-30T02:53:05;16.15;;;7.40;;
30553;SDS011;17335;50.720;7.452;2024-01-30T02:55:32;17.42;;;8.60;;
30553;SDS011;17335;50.720;7.452;2024-01-30T02:57:59;18.30;;;7.68;;
30553;SDS011;17335;50.720;7.452;2024-01-30T03:00:26;16.73;;;7.40;;
30553;SDS011;17335;50.720;7.452;2024-01-30T03:02:52;12.90;;;7.03;;
30553;SDS011;17335;50.720;7.452;2024-01-30T03:05:19;15.52;;;7.43;;
30553;SDS011;17335;50.720;7.452;2024-01-30T03:07:45;13.75;;;7.25;;
30553;SDS011;17335;50.720;7.452;2024-01-30T03:10:12;16.38;;;7.45;;
30553;SDS011;17335;50.720;7.452;2024-01-30T03:12:38;16.65;;;8.23;;
30553;SDS011;17335;50.720;7.452;2024-01-30T03:15:05;16.70;;;8.05;;
30553;SDS011;17335;50.720;7.452;2024-01-30T03:17:32;16.55;;;7.50;;
30553;SDS011;17335;50.720;7.452;2024-01-30T03:19:58;13.60;;;6.93;;
30553;SDS011;17335;50.720;7.452;2024-01-30T03:26:06;12.95;;;7.10;;
30553;SDS011;17335;50.720;7.452;2024-01-30T03:28:33;19.73;;;7.03;;
30553;SDS011;17335;50.720;7.452;2024-01-30T03:31:00;17.20;;;7.68;;
30553;SDS011;17335;50.720;7.452;2024-01-30T03:33:27;16.17;;;7.13;;
30553;SDS011;17335;50.720;7.452;2024-01-30T03:35:54;15.48;;;7.50;;
30553;SDS011;17335;50.720;7.452;2024-01-30T03:38:21;15.88;;;7.35;;
30553;SDS011;17335;50.720;7.452;2024-01-30T03:40:47;16.90;;;6.57;;
30553;SDS011;17335;50.720;7.452;2024-01-30T03:43:13;14.52;;;7.53;;
30553;SDS011;17335;50.720;7.452;2024-01-30T03:45:40;16.77;;;7.78;;
30553;SDS011;17335;50.720;7.452;2024-01-30T03:48:06;16.58;;;7.82;;
30553;SDS011;17335;50.720;7.452;2024-01-30T03:50:33;15.82;;;6.82;;
30553;SDS011;17335;50.720;7.452;2024-01-30T03:53:00;17.23;;;7.90;;
30553;SDS011;17335;50.720;7.452;2024-01-30T03:55:26;12.75;;;6.88;;
30553;SDS011;17335;50.720;7.452;2024-01-30T03:57:52;14.77;;;7.20;;
30553;SDS011;17335;50.720;7.452;2024-01-30T04:00:19;15.60;;;6.95;;
30553;SDS011;17335;50.720;7.452;2024-01-30T04:02:45;16.38;;;7.00;;
30553;SDS011;17335;50.720;7.452;2024-01-30T04:05:12;15.68;;;8.02;;
30553;SDS011;17335;50.720;7.452;2024-01-30T04:07:39;14.85;;;7.55;;
30553;SDS011;17335;50.720;7.452;2024-01-30T04:10:06;17.70;;;6.85;;
30553;SDS011;17335;50.720;7.452;2024-01-30T04:12:33;20.10;;;7.30;;
30553;SDS011;17335;50.720;7.452;2024-01-30T04:14:59;16.92;;;7.15;;
30553;SDS011;17335;50.720;7.452;2024-01-30T04:17:26;19.05;;;7.18;;
30553;SDS011;17335;50.720;7.452;2024-01-30T04:19:52;16.13;;;6.82;;
30553;SDS011;17335;50.720;7.452;2024-01-30T04:22:19;19.95;;;7.53;;
30553;SDS011;17335;50.720;7.452;2024-01-30T04:24:46;19.00;;;7.50;;
30553;SDS011;17335;50.720;7.452;2024-01-30T04:27:12;12.43;;;6.25;;
30553;SDS011;17335;50.720;7.452;2024-01-30T04:29:39;16.90;;;6.90;;
30553;SDS011;17335;50.720;7.452;2024-01-30T04:32:06;15.68;;;7.97;;
30553;SDS011;17335;50.720;7.452;2024-01-30T04:34:33;15.23;;;7.47;;
30553;SDS011;17335;50.720;7.452;2024-01-30T04:37:00;18.67;;;7.43;;
30553;SDS011;17335;50.720;7.452;2024-01-30T04:39:26;14.95;;;7.25;;
30553;SDS011;17335;50.720;7.452;2024-01-30T04:41:53;16.38;;;7.72;;
30553;SDS011;17335;50.720;7.452;2024-01-30T04:44:19;15.75;;;7.50;;
30553;SDS011;17335;50.720;7.452;2024-01-30T04:46:46;17.48;;;7.97;;
30553;SDS011;17335;50.720;7.452;2024-01-30T04:49:12;18.45;;;7.95;;
30553;SDS011;17335;50.720;7.452;2024-01-30T04:51:39;17.15;;;7.22;;
30553;SDS011;17335;50.720;7.452;2024-01-30T04:54:05;13.85;;;7.10;;
30553;SDS011;17335;50.720;7.452;2024-01-30T04:56:32;14.93;;;7.03;;
30553;SDS011;17335;50.720;7.452;2024-01-30T04:58:58;12.65;;;6.13;;
30553;SDS011;17335;50.720;7.452;2024-01-30T05:01:25;16.45;;;7.20;;
30553;SDS011;17335;50.720;7.452;2024-01-30T05:03:52;21.20;;;7.00;;
30553;SDS011;17335;50.720;7.452;2024-01-30T05:06:25;17.50;;;7.25;;
30553;SDS011;17335;50.720;7.452;2024-01-30T05:08:52;16.60;;;7.50;;
30553;SDS011;17335;50.720;7.452;2024-01-30T05:11:19;15.50;;;7.43;;
30553;SDS011;17335;50.720;7.452;2024-01-30T05:13:45;18.88;;;7.57;;
30553;SDS011;17335;50.720;7.452;2024-01-30T05:16:11;22.10;;;7.43;;
30553;SDS011;17335;50.720;7.452;2024-01-30T05:18:38;16.15;;;7.65;;
30553;SDS011;17335;50.720;7.452;2024-01-30T05:21:06;17.15;;;7.55;;
30553;SDS011;17335;50.720;7.452;2024-01-30T05:23:32;14.57;;;7.15;;
30553;SDS011;17335;50.720;7.452;2024-01-30T05:25:59;20.05;;;7.78;;
30553;SDS011;17335;50.720;7.452;2024-01-30T05:28:27;13.38;;;6.50;;
30553;SDS011;17335;50.720;7.452;2024-01-30T05:30:53;19.70;;;8.57;;
30553;SDS011;17335;50.720;7.452;2024-01-30T05:33:20;20.48;;;7.93;;
30553;SDS011;17335;50.720;7.452;2024-01-30T05:35:46;15.43;;;7.93;;
30553;SDS011;17335;50.720;7.452;2024-01-30T05:38:13;15.35;;;6.70;;
30553;SDS011;17335;50.720;7.452;2024-01-30T05:40:40;12.63;;;6.90;;
30553;SDS011;17335;50.720;7.452;2024-01-30T05:43:06;21.38;;;7.85;;
30553;SDS011;17335;50.720;7.452;2024-01-30T05:45:34;17.48;;;7.25;;
30553;SDS011;17335;50.720;7.452;2024-01-30T05:48:01;16.05;;;7.68;;
30553;SDS011;17335;50.720;7.452;2024-01-30T05:50:28;19.50;;;7.80;;
30553;SDS011;17335;50.720;7.452;2024-01-30T05:52:55;17.75;;;8.65;;
30553;SDS011;17335;50.720;7.452;2024-01-30T05:55:21;16.30;;;7.90;;
30553;SDS011;17335;50.720;7.452;2024-01-30T05:57:48;16.35;;;7.32;;
30553;SDS011;17335;50.720;7.452;2024-01-30T06:00:14;20.65;;;7.25;;
30553;SDS011;17335;50.720;7.452;2024-01-30T06:02:41;17.75;;;8.48;;
30553;SDS011;17335;50.720;7.452;2024-01-30T06:05:08;17.83;;;8.07;;
30553;SDS011;17335;50.720;7.452;2024-01-30T06:07:35;17.60;;;7.22;;
30553;SDS011;17335;50.720;7.452;2024-01-30T06:10:02;15.55;;;8.40;;
30553;SDS011;17335;50.720;7.452;2024-01-30T06:12:30;14.02;;;7.78;;
30553;SDS011;17335;50.720;7.452;2024-01-30T06:14:56;13.88;;;7.50;;
30553;SDS011;17335;50.720;7.452;2024-01-30T06:17:23;13.43;;;6.85;;
30553;SDS011;17335;50.720;7.452;2024-01-30T06:19:49;14.13;;;7.30;;
30553;SDS011;17335;50.720;7.452;2024-01-30T06:22:16;17.42;;;8.18;;
30553;SDS011;17335;50.720;7.452;2024-01-30T06:24:43;18.33;;;7.28;;
30553;SDS011;17335;50.720;7.452;2024-01-30T06:27:11;17.55;;;7.50;;
30553;SDS011;17335;50.720;7.452;2024-01-30T06:29:38;18.80;;;8.18;;
30553;SDS011;17335;50.720;7.452;2024-01-30T06:32:04;18.30;;;8.50;;
30553;SDS011;17335;50.720;7.452;2024-01-30T06:34:31;18.00;;;7.85;;
30553;SDS011;17335;50.720;7.452;2024-01-30T06:36:58;19.08;;;7.90;;
30553;SDS011;17335;50.720;7.452;2024-01-30T06:39:24;16.25;;;7.82;;
30553;SDS011;17335;50.720;7.452;2024-01-30T06:41:52;18.88;;;8.55;;
30553;SDS011;17335;50.720;7.452;2024-01-30T06:44:18;17.23;;;8.98;;
30553;SDS011;17335;50.720;7.452;2024-01-30T06:46:45;16.13;;;8.02;;
30553;SDS011;17335;50.720;7.452;2024-01-30T06:49:11;18.75;;;8.65;;
30553;SDS011;17335;50.720;7.452;2024-01-30T06:51:38;20.52;;;9.75;;
30553;SDS011;17335;50.720;7.452;2024-01-30T06:54:04;19.70;;;9.05;;
30553;SDS011;17335;50.720;7.452;2024-01-30T06:56:31;16.45;;;8.68;;
30553;SDS011;17335;50.720;7.452;2024-01-30T06:58:57;19.23;;;8.07;;
30553;SDS011;17335;50.720;7.452;2024-01-30T07:01:28;17.08;;;8.20;;
30553;SDS011;17335;50.720;7.452;2024-01-30T07:03:56;18.10;;;8.55;;
30553;SDS011;17335;50.720;7.452;2024-01-30T07:06:23;22.10;;;8.90;;
30553;SDS011;17335;50.720;7.452;2024-01-30T07:08:50;20.15;;;9.02;;
30553;SDS011;17335;50.720;7.452;2024-01-30T07:11:20;20.85;;;9.02;;
30553;SDS011;17335;50.720;7.452;2024-01-30T07:13:50;25.55;;;8.63;;
30553;SDS011;17335;50.720;7.452;2024-01-30T07:16:17;18.40;;;8.90;;
30553;SDS011;17335;50.720;7.452;2024-01-30T07:18:44;22.08;;;9.57;;
30553;SDS011;17335;50.720;7.452;2024-01-30T07:21:12;21.00;;;9.57;;
30553;SDS011;17335;50.720;7.452;2024-01-30T07:23:38;24.35;;;8.98;;
30553;SDS011;17335;50.720;7.452;2024-01-30T07:26:05;21.67;;;10.07;;
30553;SDS011;17335;50.720;7.452;2024-01-30T07:28:32;25.80;;;9.93;;
30553;SDS011;17335;50.720;7.452;2024-01-30T07:30:59;20.80;;;9.05;;
30553;SDS011;17335;50.720;7.452;2024-01-30T07:33:27;20.58;;;9.35;;
30553;SDS011;17335;50.720;7.452;2024-01-30T07:35:53;20.83;;;8.65;;
30553;SDS011;17335;50.720;7.452;2024-01-30T07:38:20;17.58;;;8.52;;
30553;SDS011;17335;50.720;7.452;2024-01-30T07:40:46;21.10;;;9.13;;
30553;SDS011;17335;50.720;7.452;2024-01-30T07:43:13;21.52;;;8.57;;
30553;SDS011;17335;50.720;7.452;2024-01-30T07:45:39;18.10;;;8.93;;
30553;SDS011;17335;50.720;7.452;2024-01-30T07:48:06;21.75;;;8.50;;
30553;SDS011;17335;50.720;7.452;2024-01-30T07:50:33;16.63;;;8.27;;
30553;SDS011;17335;50.720;7.452;2024-01-30T07:53:00;16.83;;;7.82;;
30553;SDS011;17335;50.720;7.452;2024-01-30T07:55:27;14.60;;;7.47;;
30553;SDS011;17335;50.720;7.452;2024-01-30T07:57:55;21.65;;;8.98;;
30553;SDS011;17335;50.720;7.452;2024-01-30T08:00:22;15.15;;;8.23;;
30553;SDS011;17335;50.720;7.452;2024-01-30T08:02:48;18.55;;;7.72;;
30553;SDS011;17335;50.720;7.452;2024-01-30T08:05:15;14.73;;;7.60;;
30553;SDS011;17335;50.720;7.452;2024-01-30T08:07:41;18.85;;;8.45;;
30553;SDS011;17335;50.720;7.452;2024-01-30T08:10:10;16.58;;;8.43;;
30553;SDS011;17335;50.720;7.452;2024-01-30T08:12:37;20.67;;;7.85;;
30553;SDS011;17335;50.720;7.452;2024-01-30T08:15:04;14.93;;;7.75;;
30553;SDS011;17335;50.720;7.452;2024-01-30T08:17:31;17.77;;;7.60;;
30553;SDS011;17335;50.720;7.452;2024-01-30T08:19:58;16.77;;;7.38;;
30553;SDS011;17335;50.720;7.452;2024-01-30T08:22:24;19.02;;;7.85;;
30553;SDS011;17335;50.720;7.452;2024-01-30T08:24:51;18.85;;;7.85;;
30553;SDS011;17335;50.720;7.452;2024-01-30T08:27:17;17.35;;;8.10;;
30553;SDS011;17335;50.720;7.452;2024-01-30T08:29:44;14.23;;;7.65;;
30553;SDS011;17335;50.720;7.452;2024-01-30T08:32:11;21.65;;;8.38;;
30553;SDS011;17335;50.720;7.452;2024-01-30T08:34:37;18.63;;;7.35;;
30553;SDS011;17335;50.720;7.452;2024-01-30T08:37:04;15.82;;;7.15;;
30553;SDS011;17335;50.720;7.452;2024-01-30T08:39:30;17.27;;;8.00;;
30553;SDS011;17335;50.720;7.452;2024-01-30T08:41:57;16.02;;;7.68;;
30553;SDS011;17335;50.720;7.452;2024-01-30T08:44:24;18.60;;;7.90;;
30553;SDS011;17335;50.720;7.452;2024-01-30T08:46:50;14.48;;;8.10;;
30553;SDS011;17335;50.720;7.452;2024-01-30T08:49:16;17.08;;;7.55;;
30553;SDS011;17335;50.720;7.452;2024-01-30T08:51:43;18.85;;;7.82;;
30553;SDS011;17335;50.720;7.452;2024-01-30T08:54:10;17.13;;;7.32;;
30553;SDS011;17335;50.720;7.452;2024-01-30T08:56:36;14.20;;;7.15;;
30553;SDS011;17335;50.720;7.452;2024-01-30T08:59:03;19.33;;;7.82;;
30553;SDS011;17335;50.720;7.452;2024-01-30T09:01:29;16.67;;;7.35;;
30553;SDS011;17335;50.720;7.452;2024-01-30T09:03:56;22.33;;;7.82;;
30553;SDS011;17335;50.720;7.452;2024-01-30T09:06:24;13.40;;;7.43;;
30553;SDS011;17335;50.720;7.452;2024-01-30T09:08:52;13.48;;;6.93;;
30553;SDS011;17335;50.720;7.452;2024-01-30T09:11:19;15.93;;;7.40;;
30553;SDS011;17335;50.720;7.452;2024-01-30T09:13:45;20.90;;;7.22;;
30553;SDS011;17335;50.720;7.452;2024-01-30T09:16:12;17.50;;;7.32;;
30553;SDS011;17335;50.720;7.452;2024-01-30T09:18:38;17.58;;;7.22;;
30553;SDS011;17335;50.720;7.452;2024-01-30T09:21:05;15.93;;;7.88;;
30553;SDS011;17335;50.720;7.452;2024-01-30T09:23:32;16.92;;;7.35;;
30553;SDS011;17335;50.720;7.452;2024-01-30T09:25:58;17.63;;;8.18;;
30553;SDS011;17335;50.720;7.452;2024-01-30T09:28:25;16.58;;;7.45;;
30553;SDS011;17335;50.720;7.452;2024-01-30T09:30:53;23.02;;;7.70;;
30553;SDS011;17335;50.720;7.452;2024-01-30T09:33:19;15.10;;;7.28;;
30553;SDS011;17335;50.720;7.452;2024-01-30T09:35:46;14.00;;;7.28;;
30553;SDS011;17335;50.720;7.452;2024-01-30T09:38:12;16.38;;;7.15;;
30553;SDS011;17335;50.720;7.452;2024-01-30T09:40:39;16.95;;;7.15;;
30553;SDS011;17335;50.720;7.452;2024-01-30T09:43:07;16.27;;;7.30;;
30553;SDS011;17335;50.720;7.452;2024-01-30T09:45:36;19.23;;;7.78;;
30553;SDS011;17335;50.720;7.452;2024-01-30T09:48:04;16.27;;;7.68;;
30553;SDS011;17335;50.720;7.452;2024-01-30T09:50:31;19.15;;;7.30;;
30553;SDS011;17335;50.720;7.452;2024-01-30T09:52:58;15.05;;;6.97;;
30553;SDS011;17335;50.720;7.452;2024-01-30T09:55:25;14.30;;;7.10;;
30553;SDS011;17335;50.720;7.452;2024-01-30T09:57:52;18.90;;;7.50;;
30553;SDS011;17335;50.720;7.452;2024-01-30T10:00:19;14.30;;;7.30;;
30553;SDS011;17335;50.720;7.452;2024-01-30T10:02:46;15.88;;;7.07;;
30553;SDS011;17335;50.720;7.452;2024-01-30T10:05:13;15.15;;;6.82;;
30553;SDS011;17335;50.720;7.452;2024-01-30T10:07:54;14.02;;;6.55;;
30553;SDS011;17335;50.720;7.452;2024-01-30T10:10:25;16.02;;;7.35;;
30553;SDS011;17335;50.720;7.452;2024-01-30T10:12:52;18.02;;;7.22;;
30553;SDS011;17335;50.720;7.452;2024-01-30T10:15:18;18.75;;;6.90;;
30553;SDS011;17335;50.720;7.452;2024-01-30T10:17:45;11.88;;;6.20;;
30553;SDS011;17335;50.720;7.452;2024-01-30T10:20:12;14.07;;;6.65;;
30553;SDS011;17335;50.720;7.452;2024-01-30T10:22:40;13.20;;;6.45;;
30553;SDS011;17335;50.720;7.452;2024-01-30T10:25:09;14.80;;;6.75;;
30553;SDS011;17335;50.720;7.452;2024-01-30T10:27:36;14.73;;;6.93;;
30553;SDS011;17335;50.720;7.452;2024-01-30T10:30:03;16.48;;;6.75;;
30553;SDS011;17335;50.720;7.452;2024-01-30T10:32:30;14.40;;;6.88;;
30553;SDS011;17335;50.720;7.452;2024-01-30T10:34:57;16.73;;;7.07;;
30553;SDS011;17335;50.720;7.452;2024-01-30T10:37:25;15.55;;;7.72;;
30553;SDS011;17335;50.720;7.452;2024-01-30T10:39:53;11.88;;;6.47;;
30553;SDS011;17335;50.720;7.452;2024-01-30T10:42:22;15.88;;;7.07;;
30553;SDS011;17335;50.720;7.452;2024-01-30T10:44:56;16.25;;;7.63;;
30553;SDS011;17335;50.720;7.452;2024-01-30T10:47:29;14.52;;;6.65;;
30553;SDS011;17335;50.720;7.452;2024-01-30T10:49:56;15.35;;;6.93;;
30553;SDS011;17335;50.720;7.452;2024-01-30T10:52:24;17.20;;;7.10;;
30553;SDS011;17335;50.720;7.452;2024-01-30T10:54:53;13.75;;;6.30;;
30553;SDS011;17335;50.720;7.452;2024-01-30T10:57:21;13.77;;;6.93;;
30553;SDS011;17335;50.720;7.452;2024-01-30T10:59:50;16.38;;;7.07;;
30553;SDS011;17335;50.720;7.452;2024-01-30T11:02:19;14.43;;;7.05;;
30553;SDS011;17335;50.720;7.452;2024-01-30T11:04:46;15.63;;;7.07;;
30553;SDS011;17335;50.720;7.452;2024-01-30T11:07:15;14.65;;;6.63;;
30553;SDS011;17335;50.720;7.452;2024-01-30T11:09:49;14.93;;;7.20;;
30553;SDS011;17335;50.720;7.452;2024-01-30T11:12:22;13.48;;;6.95;;
30553;SDS011;17335;50.720;7.452;2024-01-30T11:15:00;13.75;;;6.93;;
30553;SDS011;17335;50.720;7.452;2024-01-30T11:20:19;16.92;;;7.40;;
30553;SDS011;17335;50.720;7.452;2024-01-30T11:22:51;14.05;;;5.63;;
30553;SDS011;17335;50.720;7.452;2024-01-30T11:25:19;14.88;;;6.38;;
30553;SDS011;17335;50.720;7.452;2024-01-30T11:27:49;14.02;;;6.38;;
30553;SDS011;17335;50.720;7.452;2024-01-30T11:30:31;14.18;;;6.63;;
30553;SDS011;17335;50.720;7.452;2024-01-30T11:33:01;13.10;;;6.10;;
30553;SDS011;17335;50.720;7.452;2024-01-30T11:35:51;14.15;;;6.07;;
30553;SDS011;17335;50.720;7.452;2024-01-30T11:38:18;12.93;;;5.85;;
30553;SDS011;17335;50.720;7.452;2024-01-30T11:40:44;9.85;;;5.18;;
30553;SDS011;17335;50.720;7.452;2024-01-30T11:43:11;15.32;;;5.90;;
30553;SDS011;17335;50.720;7.452;2024-01-30T11:45:39;9.05;;;5.18;;
30553;SDS011;17335;50.720;7.452;2024-01-30T11:48:06;12.70;;;5.80;;
30553;SDS011;17335;50.720;7.452;2024-01-30T11:50:33;10.27;;;5.68;;
30553;SDS011;17335;50.720;7.452;2024-01-30T11:53:01;12.95;;;6.28;;
30553;SDS011;17335;50.720;7.452;2024-01-30T11:55:31;15.27;;;5.68;;
30553;SDS011;17335;50.720;7.452;2024-01-30T11:58:00;12.18;;;5.82;;
30553;SDS011;17335;50.720;7.452;2024-01-30T12:00:28;13.02;;;6.43;;
30553;SDS011;17335;50.720;7.452;2024-01-30T12:02:57;15.10;;;6.45;;
30553;SDS011;17335;50.720;7.452;2024-01-30T12:05:25;12.43;;;5.53;;
30553;SDS011;17335;50.720;7.452;2024-01-30T12:07:53;14.10;;;5.50;;
30553;SDS011;17335;50.720;7.452;2024-01-30T12:10:19;10.65;;;5.65;;
30553;SDS011;17335;50.720;7.452;2024-01-30T12:12:49;14.05;;;5.78;;
30553;SDS011;17335;50.720;7.452;2024-01-30T12:15:16;13.70;;;5.88;;
30553;SDS011;17335;50.720;7.452;2024-01-30T12:17:44;14.45;;;6.43;;
30553;SDS011;17335;50.720;7.452;2024-01-30T12:20:11;12.13;;;5.55;;
30553;SDS011;17335;50.720;7.452;2024-01-30T12:22:43;12.90;;;6.10;;
30553;SDS011;17335;50.720;7.452;2024-01-30T12:25:11;15.07;;;6.25;;
30553;SDS011;17335;50.720;7.452;2024-01-30T12:27:42;13.18;;;5.47;;
30553;SDS011;17335;50.720;7.452;2024-01-30T12:30:10;9.05;;;4.85;;
30553;SDS011;17335;50.720;7.452;2024-01-30T12:32:43;13.10;;;6.03;;
30553;SDS011;17335;50.720;7.452;2024-01-30T12:35:12;14.13;;;6.43;;
30553;SDS011;17335;50.720;7.452;2024-01-30T12:37:40;14.32;;;6.15;;
30553;SDS011;17335;50.720;7.452;2024-01-30T12:40:07;17.08;;;6.15;;
30553;SDS011;17335;50.720;7.452;2024-01-30T12:42:34;15.00;;;6.10;;
30553;SDS011;17335;50.720;7.452;2024-01-30T12:45:02;13.90;;;6.18;;
30553;SDS011;17335;50.720;7.452;2024-01-30T12:47:29;12.20;;;5.57;;
30553;SDS011;17335;50.720;7.452;2024-01-30T12:49:56;10.85;;;6.05;;
30553;SDS011;17335;50.720;7.452;2024-01-30T12:52:23;13.70;;;6.28;;
30553;SDS011;17335;50.720;7.452;2024-01-30T12:54:50;14.50;;;5.65;;
30553;SDS011;17335;50.720;7.452;2024-01-30T12:57:17;14.55;;;5.03;;
30553;SDS011;17335;50.720;7.452;2024-01-30T12:59:44;9.90;;;5.75;;
30553;SDS011;17335;50.720;7.452;2024-01-30T13:02:12;11.63;;;6.50;;
30553;SDS011;17335;50.720;7.452;2024-01-30T13:04:39;13.95;;;5.82;;
30553;SDS011;17335;50.720;7.452;2024-01-30T13:07:06;10.18;;;5.25;;
30553;SDS011;17335;50.720;7.452;2024-01-30T13:09:33;12.55;;;6.13;;
30553;SDS011;17335;50.720;7.452;2024-01-30T13:11:59;12.52;;;5.80;;
30553;SDS011;17335;50.720;7.452;2024-01-30T13:14:26;14.48;;;5.60;;
30553;SDS011;17335;50.720;7.452;2024-01-30T13:16:52;12.43;;;5.72;;
30553;SDS011;17335;50.720;7.452;2024-01-30T13:19:19;13.48;;;5.55;;
30553;SDS011;17335;50.720;7.452;2024-01-30T13:21:46;16.65;;;6.82;;
30553;SDS011;17335;50.720;7.452;2024-01-30T13:24:14;12.52;;;6.20;;
30553;SDS011;17335;50.720;7.452;2024-01-30T13:26:42;12.82;;;5.80;;
30553;SDS011;17335;50.720;7.452;2024-01-30T13:29:09;10.25;;;5.65;;
30553;SDS011;17335;50.720;7.452;2024-01-30T13:31:35;10.05;;;5.50;;
30553;SDS011;17335;50.720;7.452;2024-01-30T13:34:02;12.90;;;5.97;;
30553;SDS011;17335;50.720;7.452;2024-01-30T13:36:33;11.43;;;5.57;;
30553;SDS011;17335;50.720;7.452;2024-01-30T13:39:00;15.93;;;7.05;;
30553;SDS011;17335;50.720;7.452;2024-01-30T13:41:26;12.70;;;5.90;;
30553;SDS011;17335;50.720;7.452;2024-01-30T13:43:53;11.63;;;5.68;;
30553;SDS011;17335;50.720;7.452;2024-01-30T13:46:20;14.13;;;6.50;;
30553;SDS011;17335;50.720;7.452;2024-01-30T13:48:46;10.73;;;5.50;;
30553;SDS011;17335;50.720;7.452;2024-01-30T13:51:13;13.85;;;6.05;;
30553;SDS011;17335;50.720;7.452;2024-01-30T13:53:40;14.90;;;5.38;;
30553;SDS011;17335;50.720;7.452;2024-01-30T13:56:06;12.63;;;5.65;;
30553;SDS011;17335;50.720;7.452;2024-01-30T13:58:33;12.77;;;5.68;;
30553;SDS011;17335;50.720;7.452;2024-01-30T14:01:02;11.27;;;6.57;;
30553;SDS011;17335;50.720;7.452;2024-01-30T14:03:29;13.07;;;5.80;;
30553;SDS011;17335;50.720;7.452;2024-01-30T14:05:56;11.65;;;5.50;;
30553;SDS011;17335;50.720;7.452;2024-01-30T14:08:23;11.25;;;5.80;;
30553;SDS011;17335;50.720;7.452;2024-01-30T14:10:52;13.15;;;5.63;;
30553;SDS011;17335;50.720;7.452;2024-01-30T14:13:19;12.98;;;6.22;;
30553;SDS011;17335;50.720;7.452;2024-01-30T14:15:45;12.63;;;5.85;;
30553;SDS011;17335;50.720;7.452;2024-01-30T14:18:12;16.42;;;6.18;;
30553;SDS011;17335;50.720;7.452;2024-01-30T14:20:39;10.13;;;5.47;;
30553;SDS011;17335;50.720;7.452;2024-01-30T14:23:07;14.55;;;5.78;;
30553;SDS011;17335;50.720;7.452;2024-01-30T14:25:33;10.90;;;5.50;;
30553;SDS011;17335;50.720;7.452;2024-01-30T14:28:00;11.95;;;5.95;;
30553;SDS011;17335;50.720;7.452;2024-01-30T14:30:26;8.88;;;5.00;;
30553;SDS011;17335;50.720;7.452;2024-01-30T14:32:53;13.15;;;5.70;;
30553;SDS011;17335;50.720;7.452;2024-01-30T14:35:20;10.50;;;5.85;;
30553;SDS011;17335;50.720;7.452;2024-01-30T14:37:46;15.00;;;6.32;;
30553;SDS011;17335;50.720;7.452;2024-01-30T14:40:13;14.45;;;6.03;;
30553;SDS011;17335;50.720;7.452;2024-01-30T14:42:40;11.00;;;5.50;;